Terminal Aerodrome Forecast
Issued by NWS

Home | Current Version | Previous Version | Text Only | Print | Product List | Glossary On
Versions: 1 2 3 4 5 6 7 8 9 10 11 12 13 14 15
000
FTUS43 KLSX 202320
TAFCPS
TAF
KCPS 202320Z 2100/2124 23006KT P6SM FEW250
     FM210200 22005KT P6SM VCTS SCT080CB
     FM210400 23005KT P6SM SCT100
     FM211500 26006KT P6SM FEW070
     FM212200 18007KT P6SM FEW070=

USA.gov is the U.S. government's official web portal to all federal, state and local government web resources and services.